CheckWX is a tool to help pilots better visualize weather data.  It is not intended as a substitute for an official pre-flight weather briefing.

20:48:51 UTC

KRST TAF
Rochester International Airport
Rochester, Minnesota, USA
KRST 161720Z 1618/1718 08007KT P6SM OVC017 FM170100 10005KT P6SM SCT020 FM170900 12005KT 3SM BR SCT015 FM171300 VRB04KT P6SM SCT025

Jun-16@
18:00 UTC

Jun-16 @ 18:00 UTC

Jun-17@
01:00 UTC

Jun-17 @ 01:00 UTC

KRST 161720Z 1618/1718 08007KT P6SM OVC017
Wind
  • 080° at 7 KTS
Cloud Levels
  • Overcast at 1,700' AGL

Jun-17@
01:00 UTC

Jun-17 @ 01:00 UTC

Jun-17@
09:00 UTC

Jun-17 @ 09:00 UTC

FM170100 10005KT P6SM SCT020

From

From Standard forecast or significant change

Wind
  • 100° at 5 KTS
Cloud Levels
  • Scattered at 2,000' AGL

Jun-17@
09:00 UTC

Jun-17 @ 09:00 UTC

Jun-17@
13:00 UTC

Jun-17 @ 13:00 UTC

FM170900 12005KT 3SM BR SCT015

From

From Standard forecast or significant change

Wind
  • 120° at 5 KTS
Conditions
Mist
Cloud Levels
  • Scattered at 1,500' AGL

Jun-17@
13:00 UTC

Jun-17 @ 13:00 UTC

Jun-17@
18:00 UTC

Jun-17 @ 18:00 UTC

FM171300 VRB04KT P6SM SCT025

From

From Standard forecast or significant change

Wind
  • Variable at 4 KTS
Cloud Levels
  • Scattered at 2,500' AGL